Time;durP1;ratioP1;P1;durP2;ratioP2;P2;SDS_P1;SDS_P2;PMS_P1;PMS_P2;Temp;Humidity;BMP_temperature;BMP_pressure;BME280_temperature;BME280_humidity;BME280_pressure;Samples;Min_cycle;Max_cycle;Signal;HPM_P1;HPM_P2
2023/03/06 00:00:27;;;;;;;15.10;7.40;;;;;;;-1.56;61.82;98639.43;107897;1253;73904;-71
2023/03/06 00:03:00;;;;;;;15.50;8.40;;;;;;;-1.52;61.79;98639.18;108343;1252;70062;-69
2023/03/06 00:05:26;;;;;;;17.30;8.20;;;;;;;-1.51;61.86;98640.61;108164;1253;73785;-70
2023/03/06 00:07:53;;;;;;;20.00;8.60;;;;;;;-1.51;61.81;98640.12;107642;1256;60426;-69
2023/03/06 00:10:26;;;;;;;18.10;8.90;;;;;;;-1.51;61.84;98637.55;108566;1253;59272;-69
2023/03/06 00:12:59;;;;;;;22.20;14.00;;;;;;;-1.51;61.81;98636.66;108855;1255;73644;-70
2023/03/06 00:15:27;;;;;;;22.50;11.90;;;;;;;-1.51;61.90;98637.32;108472;1253;70339;-68
2023/03/06 00:17:54;;;;;;;19.80;10.50;;;;;;;-1.50;61.93;98632.79;108389;1256;70758;-69
2023/03/06 00:20:22;;;;;;;23.50;11.30;;;;;;;-1.50;61.83;98634.85;107131;1254;60366;-69
2023/03/06 00:22:52;;;;;;;18.50;12.30;;;;;;;-1.50;61.86;98641.58;108181;1253;60183;-70
2023/03/06 00:25:20;;;;;;;18.40;10.80;;;;;;;-1.51;61.98;98645.69;107701;1253;73048;-69
2023/03/06 00:27:49;;;;;;;22.20;10.50;;;;;;;-1.52;62.18;98643.00;107753;1253;69632;-70
2023/03/06 00:30:24;;;;;;;23.60;12.60;;;;;;;-1.53;62.34;98648.98;107696;1253;72073;-69
2023/03/06 00:32:55;;;;;;;21.70;11.40;;;;;;;-1.54;62.21;98651.80;108383;1253;60414;-68
2023/03/06 00:35:32;;;;;;;16.70;8.80;;;;;;;-1.54;62.42;98653.53;109167;1253;60371;-69
2023/03/06 00:37:59;;;;;;;11.70;6.20;;;;;;;-1.54;63.27;98661.35;109047;1253;73895;-70
2023/03/06 00:40:29;;;;;;;14.30;6.80;;;;;;;-1.56;64.63;98662.22;109070;1253;68408;-70
2023/03/06 00:42:56;;;;;;;9.70;5.90;;;;;;;-1.60;65.76;98657.81;108786;1252;72004;-69
2023/03/06 00:45:25;;;;;;;10.70;4.70;;;;;;;-1.65;67.58;98658.17;108370;1253;59287;-70
2023/03/06 00:47:52;;;;;;;9.00;4.60;;;;;;;-1.61;69.50;98663.99;108925;1253;61007;-70
2023/03/06 00:50:19;;;;;;;9.20;4.10;;;;;;;-1.55;70.64;98671.20;108713;1253;72685;-68
2023/03/06 00:52:47;;;;;;;11.50;4.50;;;;;;;-1.63;71.61;98665.88;108328;1256;70352;-70
2023/03/06 00:55:14;;;;;;;8.00;4.40;;;;;;;-1.75;72.62;98664.48;107974;1256;71853;-70
2023/03/06 00:57:41;;;;;;;9.40;5.10;;;;;;;-1.86;73.95;98660.25;107477;1258;59599;-70
2023/03/06 01:00:10;;;;;;;7.90;4.40;;;;;;;-1.95;74.54;98660.50;107540;1256;60415;-69
2023/03/06 01:02:37;;;;;;;8.10;4.40;;;;;;;-1.89;75.26;98659.46;107561;1253;74404;-71
2023/03/06 01:05:06;;;;;;;8.80;3.80;;;;;;;-1.84;75.89;98660.48;107536;1253;69254;-69
2023/03/06 01:07:35;;;;;;;9.30;4.50;;;;;;;-1.92;76.31;98655.75;108255;1253;71735;-70
2023/03/06 01:10:04;;;;;;;7.80;4.20;;;;;;;-2.02;77.37;98652.97;108571;1253;60369;-71
2023/03/06 01:12:31;;;;;;;8.30;4.20;;;;;;;-2.10;77.68;98648.20;109361;1253;60403;-71
2023/03/06 01:14:58;;;;;;;7.80;3.70;;;;;;;-2.12;78.74;98652.76;109285;1253;72125;-72
2023/03/06 01:17:25;;;;;;;5.80;3.40;;;;;;;-2.06;78.57;98648.07;109012;1253;214170;-71
2023/03/06 01:21:30;;;;;;;7.00;3.90;;;;;;;-1.95;79.20;98644.63;105026;1291;600298;-71
2023/03/06 01:23:59;;;;;;;8.80;4.40;;;;;;;-2.03;79.69;98639.88;106283;1267;60482;-71
2023/03/06 01:26:27;;;;;;;8.60;4.20;;;;;;;-2.08;79.99;98640.44;106663;1266;59420;-73
2023/03/06 01:28:58;;;;;;;10.60;4.80;;;;;;;-2.09;80.46;98638.94;107237;1265;72999;-72
2023/03/06 01:31:29;;;;;;;9.30;4.00;;;;;;;-2.05;80.40;98632.08;106500;1267;69450;-70
2023/03/06 01:33:57;;;;;;;9.10;4.90;;;;;;;-1.90;79.96;98625.71;107308;1267;72329;-72
2023/03/06 01:36:25;;;;;;;8.90;4.30;;;;;;;-1.85;79.93;98629.53;108660;1263;58534;-72
2023/03/06 01:38:55;;;;;;;9.10;4.00;;;;;;;-1.87;80.24;98629.16;108852;1263;60022;-72
2023/03/06 01:41:23;;;;;;;8.30;3.90;;;;;;;-1.88;80.48;98624.20;108794;1263;72123;-70
2023/03/06 01:43:53;;;;;;;8.00;4.20;;;;;;;-1.89;80.45;98624.41;108843;1263;68222;-72
2023/03/06 01:46:32;;;;;;;9.30;3.90;;;;;;;-1.92;80.53;98616.52;108674;1263;72775;-72
2023/03/06 01:49:13;;;;;;;6.70;3.50;;;;;;;-1.89;80.54;98617.69;106713;1255;61002;-71
2023/03/06 01:51:51;;;;;;;5.70;3.00;;;;;;;-1.79;80.30;98614.31;106582;1254;61582;-74
2023/03/06 01:54:28;;;;;;;7.50;3.60;;;;;;;-1.82;80.37;98623.56;106884;1254;72515;-72
2023/03/06 01:57:01;;;;;;;6.40;3.10;;;;;;;-1.90;80.61;98617.73;107015;1254;69766;-73
2023/03/06 01:59:29;;;;;;;6.70;3.80;;;;;;;-1.95;80.93;98615.52;105949;1260;72721;-73
2023/03/06 02:01:57;;;;;;;6.50;3.00;;;;;;;-1.98;81.00;98618.69;106644;1254;60958;-71
2023/03/06 02:04:25;;;;;;;9.20;4.20;;;;;;;-2.00;81.28;98614.35;109358;1254;58293;-70
2023/03/06 02:06:53;;;;;;;6.60;3.40;;;;;;;-1.92;81.35;98613.86;109188;1254;72972;-73
2023/03/06 02:09:23;;;;;;;6.70;4.00;;;;;;;-1.85;81.07;98618.57;106751;1254;70071;-72
2023/03/06 02:11:53;;;;;;;7.90;4.20;;;;;;;-1.91;81.28;98613.96;106625;1254;71951;-75
2023/03/06 02:14:22;;;;;;;9.00;3.80;;;;;;;-1.93;81.62;98615.03;106884;1254;59196;-71
2023/03/06 02:16:55;;;;;;;9.90;4.80;;;;;;;-1.95;81.73;98619.91;107007;1253;61534;-70
2023/03/06 02:19:52;;;;;;;9.70;3.60;;;;;;;-1.98;81.92;98615.37;108267;1254;72289;-72
2023/03/06 02:22:20;;;;;;;7.50;3.70;;;;;;;-1.87;81.80;98614.54;108234;1254;70145;-71
2023/03/06 02:25:04;;;;;;;6.30;3.20;;;;;;;-1.75;81.60;98609.34;107382;1254;72306;-71
2023/03/06 02:27:34;;;;;;;9.50;3.90;;;;;;;-1.75;81.71;98609.02;107809;1256;59607;-71
2023/03/06 02:30:07;;;;;;;10.10;3.70;;;;;;;-1.79;81.87;98608.04;109540;1253;60181;-71
2023/03/06 02:32:36;;;;;;;6.30;3.40;;;;;;;-1.81;81.83;98606.10;107974;1253;73445;-71
2023/03/06 02:35:16;;;;;;;6.80;3.70;;;;;;;-1.86;81.92;98600.39;107428;1253;71566;-71
2023/03/06 02:37:44;;;;;;;8.10;3.80;;;;;;;-1.90;81.92;98602.49;105990;1254;71181;-70
2023/03/06 02:40:13;;;;;;;6.90;3.20;;;;;;;-1.83;81.84;98601.08;105937;1254;61145;-71
2023/03/06 02:42:48;;;;;;;8.50;3.70;;;;;;;-1.72;81.62;98605.74;105780;1259;59577;-71
2023/03/06 02:45:19;;;;;;;6.10;3.50;;;;;;;-1.74;81.79;98601.44;105851;1259;71844;-73
2023/03/06 02:47:49;;;;;;;;;;;;;;;-1.82;82.00;98602.52;105944;1254;69474;-70
2023/03/06 02:50:20;;;;;;;9.10;4.30;;;;;;;-1.90;82.02;98601.04;105827;1258;73550;-71
2023/03/06 02:52:49;;;;;;;5.80;3.40;;;;;;;-2.00;82.38;98604.09;105786;1254;59697;-72
2023/03/06 02:55:17;;;;;;;6.00;3.70;;;;;;;-2.07;82.59;98602.70;105717;1254;61195;-71
2023/03/06 02:57:46;;;;;;;6.10;3.80;;;;;;;-2.02;82.47;98599.85;105822;1254;73274;-72
2023/03/06 03:00:15;;;;;;;7.60;3.90;;;;;;;-1.92;82.50;98602.45;105441;1254;69894;-71
2023/03/06 03:02:44;;;;;;;5.90;3.10;;;;;;;-1.93;82.82;98597.88;105798;1259;73852;-71
2023/03/06 03:05:13;;;;;;;6.30;3.60;;;;;;;-1.98;82.99;98598.73;105825;1253;60359;-72
2023/03/06 03:07:46;;;;;;;8.60;3.70;;;;;;;-2.04;83.03;98597.10;106032;1256;61071;-70
2023/03/06 03:10:15;;;;;;;6.80;3.60;;;;;;;-2.10;83.27;98601.73;105955;1253;72817;-71
2023/03/06 03:12:46;;;;;;;8.90;4.40;;;;;;;-2.14;83.43;98598.59;105915;1256;71651;-71
2023/03/06 03:15:15;;;;;;;5.40;3.20;;;;;;;-2.07;83.11;98599.05;105946;1254;72894;-72
2023/03/06 03:17:43;;;;;;;7.00;3.20;;;;;;;-1.99;82.96;98597.59;105651;1257;59631;-74
2023/03/06 03:20:14;;;;;;;7.10;3.60;;;;;;;-2.02;83.06;98594.36;105766;1252;59669;-71
2023/03/06 03:22:51;;;;;;;8.50;4.90;;;;;;;-2.08;83.33;98596.41;105938;1261;74421;-74
2023/03/06 03:25:20;;;;;;;7.70;4.30;;;;;;;-2.15;83.57;98595.33;105836;1254;69755;-70
2023/03/06 03:27:48;;;;;;;6.70;4.00;;;;;;;-2.21;83.79;98597.88;105902;1256;73527;-72
2023/03/06 03:30:17;;;;;;;7.60;4.40;;;;;;;-2.25;83.95;98592.81;105586;1259;60115;-72
2023/03/06 03:32:47;;;;;;;8.60;4.30;;;;;;;-2.15;83.91;98599.52;105816;1254;61175;-70
2023/03/06 03:35:15;;;;;;;8.70;4.30;;;;;;;-2.07;84.03;98599.41;105554;1254;72207;-70
2023/03/06 03:37:43;;;;;;;8.60;4.70;;;;;;;-2.10;84.20;98601.21;105675;1254;70370;-71
2023/03/06 03:40:12;;;;;;;8.30;5.20;;;;;;;-2.16;84.46;98601.15;105590;1259;73711;-69
2023/03/06 03:42:43;;;;;;;6.20;4.10;;;;;;;-2.22;84.87;98597.90;105581;1254;59679;-70
2023/03/06 03:45:11;;;;;;;6.50;3.40;;;;;;;-2.24;84.95;98600.52;105580;1254;59684;-71
2023/03/06 03:47:44;;;;;;;7.10;3.90;;;;;;;-2.13;84.70;98601.77;105795;1256;73886;-71
2023/03/06 03:50:12;;;;;;;7.80;3.80;;;;;;;-2.04;84.41;98604.05;105509;1254;71360;-70
2023/03/06 03:52:41;;;;;;;6.50;3.70;;;;;;;-2.09;84.43;98604.63;105416;1256;73285;-70
2023/03/06 03:55:11;;;;;;;6.90;3.80;;;;;;;-2.14;84.78;98602.21;105940;1254;60578;-70
2023/03/06 03:57:41;;;;;;;7.90;4.70;;;;;;;-2.19;84.71;98601.52;105660;1258;60995;-70
2023/03/06 04:00:14;;;;;;;9.60;5.50;;;;;;;-2.25;84.82;98600.92;105692;1254;70890;-68
2023/03/06 04:02:51;;;;;;;9.60;5.50;;;;;;;-2.18;84.81;98601.98;105518;1259;69138;-69
2023/03/06 04:05:28;;;;;;;9.60;6.30;;;;;;;-2.06;84.82;98605.23;105709;1254;73826;-69
2023/03/06 04:08:02;;;;;;;10.50;6.40;;;;;;;-2.06;84.93;98610.82;105548;1259;59695;-70
2023/03/06 04:10:31;;;;;;;11.10;6.00;;;;;;;-2.11;85.06;98609.79;105883;1254;60920;-70
2023/03/06 04:12:59;;;;;;;11.60;6.80;;;;;;;-2.17;85.20;98609.33;105799;1259;72026;-71
2023/03/06 04:15:32;;;;;;;14.10;7.20;;;;;;;-2.19;85.17;98610.05;106106;1254;69387;-70
2023/03/06 04:18:01;;;;;;;10.90;7.00;;;;;;;-2.09;84.95;98616.02;105912;1254;72572;-71
2023/03/06 04:20:29;;;;;;;11.80;6.40;;;;;;;-2.05;84.97;98617.31;105582;1254;59641;-70
2023/03/06 04:22:59;;;;;;;11.30;7.10;;;;;;;-2.09;85.09;98617.94;105745;1254;62205;-71
2023/03/06 04:25:28;;;;;;;13.00;7.00;;;;;;;-2.11;85.28;98615.72;106189;1257;73513;-70
2023/03/06 04:27:58;;;;;;;9.50;6.30;;;;;;;-2.14;85.23;98621.45;105522;1254;70502;-71
2023/03/06 04:30:28;;;;;;;8.90;5.70;;;;;;;-2.06;85.17;98618.80;106039;1254;73294;-70
2023/03/06 04:32:57;;;;;;;10.80;6.40;;;;;;;-1.98;84.90;98622.14;106005;1254;60615;-69
2023/03/06 04:35:27;;;;;;;11.20;6.40;;;;;;;-2.02;85.00;98622.80;105960;1252;59509;-71
2023/03/06 04:38:00;;;;;;;9.10;5.80;;;;;;;-2.09;85.27;98623.16;105620;1256;74088;-71
2023/03/06 04:40:31;;;;;;;9.80;5.80;;;;;;;-2.13;85.50;98621.77;106039;1254;71194;-71
2023/03/06 04:43:01;;;;;;;10.50;5.60;;;;;;;-2.08;85.38;98622.04;105958;1254;71932;-73
2023/03/06 04:45:29;;;;;;;9.60;4.70;;;;;;;-1.95;85.29;98626.80;105960;1254;60355;-70
2023/03/06 04:48:01;;;;;;;9.90;4.90;;;;;;;-1.93;85.21;98632.90;105923;1253;61263;-70
2023/03/06 04:50:31;;;;;;;7.20;4.60;;;;;;;-1.94;85.19;98634.06;105994;1257;74021;-72
2023/03/06 04:53:02;;;;;;;6.90;5.40;;;;;;;-1.95;85.49;98632.69;105831;1254;71645;-71
2023/03/06 04:55:31;;;;;;;12.40;5.50;;;;;;;-1.94;85.23;98636.30;105643;1252;73160;-70
2023/03/06 04:57:59;;;;;;;9.20;5.50;;;;;;;-1.88;85.05;98629.35;105991;1254;62469;-70
2023/03/06 05:00:30;;;;;;;8.70;4.80;;;;;;;-1.74;84.74;98633.86;105932;1253;61106;-71
2023/03/06 05:03:00;;;;;;;8.60;5.30;;;;;;;-1.73;84.84;98637.66;105662;1254;73215;-72
2023/03/06 05:05:28;;;;;;;12.10;7.70;;;;;;;-1.74;85.04;98643.44;105930;1259;69178;-69
2023/03/06 05:07:57;;;;;;;10.20;6.20;;;;;;;-1.76;84.75;98644.66;106077;1259;73903;-68
2023/03/06 05:10:25;;;;;;;8.50;5.10;;;;;;;-1.81;84.81;98648.30;106119;1254;59707;-69
2023/03/06 05:12:55;;;;;;;9.20;5.80;;;;;;;-1.73;84.61;98649.26;105471;1254;59545;-71
2023/03/06 05:15:23;;;;;;;12.50;6.20;;;;;;;-1.67;84.31;98650.55;105742;1256;73984;-69
2023/03/06 05:17:52;;;;;;;12.10;7.10;;;;;;;-1.71;84.57;98650.17;105678;1257;71192;-69
2023/03/06 05:20:20;;;;;;;10.70;7.60;;;;;;;-1.76;84.73;98656.42;106130;1254;74150;-70
2023/03/06 05:22:54;;;;;;;14.90;8.90;;;;;;;-1.81;84.89;98656.09;105851;1254;59727;-70
2023/03/06 05:25:24;;;;;;;14.40;9.10;;;;;;;-1.84;85.18;98660.30;105700;1254;59799;-72
2023/03/06 05:27:52;;;;;;;15.70;8.20;;;;;;;-1.74;84.93;98664.77;106077;1254;73050;-71
2023/03/06 05:30:22;;;;;;;13.00;7.70;;;;;;;-1.61;84.64;98661.36;106139;1259;71639;-73
2023/03/06 05:32:51;;;;;;;10.40;7.30;;;;;;;-1.57;84.73;98663.84;106166;1254;72754;-73
2023/03/06 05:35:21;;;;;;;14.20;7.10;;;;;;;-1.57;84.92;98665.61;106050;1258;60524;-72
2023/03/06 05:37:49;;;;;;;11.80;6.60;;;;;;;-1.56;84.72;98668.44;106204;1254;60448;-72
2023/03/06 05:40:19;;;;;;;11.30;7.00;;;;;;;-1.56;84.65;98675.73;106313;1254;72749;-72
2023/03/06 05:42:47;;;;;;;11.30;7.10;;;;;;;-1.54;84.67;98677.35;106213;1254;70201;-72
2023/03/06 05:45:16;;;;;;;11.00;6.10;;;;;;;-1.43;84.24;98679.40;106312;1253;72371;-73
2023/03/06 05:47:45;;;;;;;11.90;7.30;;;;;;;-1.32;83.93;98673.57;106245;1254;60641;-71
2023/03/06 05:50:15;;;;;;;11.60;7.50;;;;;;;-1.32;83.74;98677.54;106085;1254;61574;-69
2023/03/06 05:52:45;;;;;;;11.80;7.30;;;;;;;-1.33;83.89;98672.41;106084;1254;73909;-71
2023/03/06 05:55:14;;;;;;;14.20;8.20;;;;;;;-1.32;83.78;98671.83;105532;1254;70175;-72
2023/03/06 05:57:42;;;;;;;13.70;7.80;;;;;;;-1.32;83.43;98674.98;106070;1257;72257;-70
2023/03/06 06:00:13;;;;;;;17.50;10.60;;;;;;;-1.32;83.25;98671.81;105968;1254;61869;-68
2023/03/06 06:02:46;;;;;;;15.70;9.40;;;;;;;-1.20;82.68;98678.33;105924;1259;60369;-68
2023/03/06 06:05:14;;;;;;;14.40;8.90;;;;;;;-1.12;82.38;98681.37;106338;1254;73295;-70
2023/03/06 06:07:46;;;;;;;13.80;9.30;;;;;;;-1.10;82.58;98691.30;106054;1254;70606;-71
2023/03/06 06:10:14;;;;;;;12.90;9.20;;;;;;;-1.07;82.63;98692.64;106005;1254;72243;-71
2023/03/06 06:12:43;;;;;;;11.40;8.20;;;;;;;-1.04;82.76;98697.81;105984;1254;60604;-70
2023/03/06 06:15:12;;;;;;;12.10;8.00;;;;;;;-1.00;82.70;98698.33;105561;1254;60512;-71
2023/03/06 06:17:41;;;;;;;13.60;8.20;;;;;;;-0.82;82.44;98704.39;106176;1256;73185;-69
2023/03/06 06:20:10;;;;;;;12.60;7.50;;;;;;;-0.72;82.19;98702.91;105603;1260;71667;-71
2023/03/06 06:22:39;;;;;;;14.70;9.20;;;;;;;-0.69;82.28;98703.92;105584;1262;72556;-70
2023/03/06 06:25:09;;;;;;;15.40;8.60;;;;;;;-0.66;81.99;98710.58;105445;1259;62752;-72
2023/03/06 06:27:38;;;;;;;13.60;9.10;;;;;;;-0.65;81.71;98722.55;105821;1255;60394;-71
2023/03/06 06:30:06;;;;;;;11.10;8.00;;;;;;;-0.65;81.36;98724.06;105707;1259;74815;-72
2023/03/06 06:32:39;;;;;;;9.90;7.10;;;;;;;-0.52;81.02;98723.83;105880;1254;71287;-71
2023/03/06 06:35:08;;;;;;;8.70;6.60;;;;;;;-0.39;80.55;98724.31;105935;1258;72083;-72
2023/03/06 06:37:37;;;;;;;14.50;8.40;;;;;;;-0.39;80.50;98725.71;105582;1254;60456;-72
2023/03/06 06:40:06;;;;;;;8.70;6.60;;;;;;;-0.42;80.63;98728.92;105673;1259;61105;-72
2023/03/06 06:42:35;;;;;;;12.30;7.00;;;;;;;-0.42;80.41;98729.25;105766;1253;72972;-71
2023/03/06 06:45:09;;;;;;;13.10;6.70;;;;;;;-0.47;79.96;98732.61;105849;1258;71616;-71
2023/03/06 06:47:40;;;;;;;12.30;7.10;;;;;;;-0.52;79.90;98738.35;105915;1257;72968;-73
2023/03/06 06:50:13;;;;;;;8.30;5.90;;;;;;;-0.41;79.81;98742.41;105804;1254;62182;-73
2023/03/06 06:52:41;;;;;;;13.20;6.80;;;;;;;-0.31;79.43;98741.08;105763;1254;60489;-71
2023/03/06 06:55:16;;;;;;;9.60;6.20;;;;;;;-0.32;78.84;98745.34;106080;1253;75120;-70
2023/03/06 06:57:44;;;;;;;11.30;6.70;;;;;;;-0.36;78.99;98743.92;106016;1253;68592;-73
2023/03/06 07:00:13;;;;;;;15.70;9.10;;;;;;;-0.31;79.46;98751.34;105904;1257;73601;-71
2023/03/06 07:02:42;;;;;;;13.00;8.50;;;;;;;-0.23;79.22;98752.73;105749;1255;60720;-73
2023/03/06 07:05:10;;;;;;;16.70;8.30;;;;;;;-0.12;78.77;98755.19;105808;1254;61701;-70
2023/03/06 07:07:41;;;;;;;10.70;6.20;;;;;;;0.10;78.17;98756.54;105774;1256;74975;-72
2023/03/06 07:10:13;;;;;;;15.60;7.40;;;;;;;0.39;77.77;98752.79;105906;1253;71355;-73
2023/03/06 07:12:47;;;;;;;11.20;7.20;;;;;;;0.65;77.80;98753.23;105935;1253;72816;-74
2023/03/06 07:15:16;;;;;;;10.30;7.10;;;;;;;0.84;76.62;98755.59;106011;1257;60939;-77
2023/03/06 07:17:44;;;;;;;10.20;7.20;;;;;;;0.95;75.97;98763.70;106126;1253;60875;-73
2023/03/06 07:20:18;;;;;;;10.70;6.90;;;;;;;1.05;75.35;98768.11;105735;1254;73935;-73
2023/03/06 07:22:47;;;;;;;9.70;6.30;;;;;;;1.11;74.66;98776.15;106032;1256;69092;-75
2023/03/06 07:25:19;;;;;;;10.60;7.10;;;;;;;1.14;73.83;98777.27;106063;1255;72776;-75
2023/03/06 07:27:52;;;;;;;12.30;7.30;;;;;;;1.08;73.36;98779.95;105915;1255;60431;-75
2023/03/06 07:30:21;;;;;;;10.60;7.20;;;;;;;1.02;73.71;98780.90;106057;1257;61252;-75
2023/03/06 07:32:54;;;;;;;12.60;6.60;;;;;;;1.01;73.23;98782.66;105855;1254;74778;-73
2023/03/06 07:35:22;;;;;;;9.70;6.00;;;;;;;1.08;72.66;98785.34;105923;1254;71231;-74
2023/03/06 07:37:52;;;;;;;9.40;5.90;;;;;;;1.05;72.37;98786.14;105949;1257;71888;-74
2023/03/06 07:40:20;;;;;;;7.60;5.60;;;;;;;0.95;72.46;98788.83;106155;1252;60418;-77
2023/03/06 07:42:48;;;;;;;8.70;5.70;;;;;;;0.93;72.28;98791.44;106197;1259;60425;-75
2023/03/06 07:45:20;;;;;;;8.30;5.50;;;;;;;0.94;72.10;98793.80;106039;1253;75051;-76
2023/03/06 07:47:49;;;;;;;7.50;5.50;;;;;;;0.88;70.87;98797.13;106287;1254;69688;-76
2023/03/06 07:50:18;;;;;;;9.40;5.70;;;;;;;0.75;70.60;98793.86;108794;1253;70835;-76
2023/03/06 07:52:46;;;;;;;9.30;5.30;;;;;;;0.69;70.58;98793.31;107478;1254;60405;-75
2023/03/06 07:55:15;;;;;;;9.40;5.70;;;;;;;0.67;70.19;98800.13;106236;1254;60296;-78
2023/03/06 07:57:43;;;;;;;8.30;5.40;;;;;;;0.68;70.26;98797.41;106659;1256;73596;-77
2023/03/06 08:00:13;;;;;;;8.00;5.20;;;;;;;0.81;70.66;98801.23;106023;1254;71609;-75
2023/03/06 08:02:43;;;;;;;9.70;6.00;;;;;;;0.99;70.66;98800.00;106374;1254;71689;-75
2023/03/06 08:05:13;;;;;;;6.90;5.10;;;;;;;1.24;70.35;98798.58;107169;1256;60945;-76
2023/03/06 08:07:43;;;;;;;10.50;6.10;;;;;;;1.48;69.70;98804.41;107413;1259;60389;-76
2023/03/06 08:10:13;;;;;;;12.80;6.40;;;;;;;1.48;68.59;98805.27;106760;1256;73306;-77
2023/03/06 08:12:41;;;;;;;10.70;6.80;;;;;;;1.34;68.50;98812.92;106114;1257;69591;-76
2023/03/06 08:15:10;;;;;;;9.90;6.60;;;;;;;1.16;68.31;98819.19;106023;1256;72895;-77
2023/03/06 08:17:39;;;;;;;8.90;5.80;;;;;;;0.95;69.08;98817.23;106005;1257;60536;-75
2023/03/06 08:20:09;;;;;;;12.00;7.00;;;;;;;0.81;69.31;98819.02;106014;1256;61121;-78
2023/03/06 08:22:37;;;;;;;9.40;6.40;;;;;;;0.70;70.18;98822.27;105936;1256;73266;-76
2023/03/06 08:25:06;;;;;;;9.00;6.00;;;;;;;0.66;70.73;98818.48;105849;1253;69456;-77
2023/03/06 08:27:34;;;;;;;12.60;7.50;;;;;;;0.66;71.25;98821.67;105793;1259;73675;-77
2023/03/06 08:30:03;;;;;;;8.30;5.50;;;;;;;0.68;71.91;98823.55;106080;1254;60456;-76
2023/03/06 08:32:35;;;;;;;11.40;6.10;;;;;;;0.73;70.78;98824.90;105908;1258;61652;-73
2023/03/06 08:35:03;;;;;;;9.20;5.70;;;;;;;0.81;70.40;98829.80;105944;1254;72582;-76
2023/03/06 08:37:32;;;;;;;9.80;5.90;;;;;;;0.76;69.60;98831.63;105981;1254;69606;-76
2023/03/06 08:40:03;;;;;;;7.80;5.50;;;;;;;0.64;69.38;98831.73;105905;1258;73336;-76
2023/03/06 08:42:35;;;;;;;7.20;4.80;;;;;;;0.52;68.97;98840.52;106371;1254;60420;-77
2023/03/06 08:45:05;;;;;;;7.60;5.10;;;;;;;0.42;69.19;98841.00;107727;1256;60370;-75
2023/03/06 08:47:34;;;;;;;8.70;5.50;;;;;;;0.38;69.27;98843.77;107042;1260;73583;-78
2023/03/06 08:50:03;;;;;;;10.70;6.30;;;;;;;0.43;70.46;98844.79;106671;1254;69558;-76
2023/03/06 08:52:31;;;;;;;8.50;5.60;;;;;;;0.55;71.88;98845.83;106885;1257;71542;-79
2023/03/06 08:55:02;;;;;;;8.60;5.60;;;;;;;0.77;72.46;98844.58;106088;1259;60470;-76
2023/03/06 08:57:30;;;;;;;9.60;5.80;;;;;;;1.12;71.38;98848.48;106020;1259;61239;-75
2023/03/06 09:00:26;;;;;;;12.40;7.80;;;;;;;1.32;69.97;98848.13;106140;1259;74863;-75
2023/03/06 09:02:56;;;;;;;15.10;7.40;;;;;;;1.43;69.37;98850.73;107286;1259;71559;-77
2023/03/06 09:05:25;;;;;;;11.30;7.20;;;;;;;1.48;68.48;98855.02;107564;1258;70868;-75
2023/03/06 09:07:53;;;;;;;7.90;5.20;;;;;;;1.52;68.44;98856.05;107532;1256;60422;-74
2023/03/06 09:10:25;;;;;;;6.30;4.20;;;;;;;1.55;65.78;98852.98;106318;1257;60446;-76
2023/03/06 09:12:55;;;;;;;7.10;4.80;;;;;;;1.51;64.74;98861.37;106264;1254;74489;-76
2023/03/06 09:15:24;;;;;;;6.30;4.10;;;;;;;1.54;64.72;98856.59;106340;1254;71325;-75
2023/03/06 09:17:54;;;;;;;8.70;4.90;;;;;;;1.76;65.20;98856.92;107119;1254;72387;-76
2023/03/06 09:20:23;;;;;;;6.40;4.90;;;;;;;2.12;64.46;98864.10;107319;1251;60442;-75
2023/03/06 09:22:52;;;;;;;8.90;5.60;;;;;;;2.50;65.53;98860.58;107970;1253;60428;-76
2023/03/06 09:25:22;;;;;;;10.00;5.90;;;;;;;2.94;64.10;98869.48;107702;1259;74139;-75
2023/03/06 09:27:51;;;;;;;12.40;7.40;;;;;;;3.26;62.22;98866.89;107269;1257;70504;-75
2023/03/06 09:30:43;;;;;;;8.40;5.30;;;;;;;3.43;60.15;98869.74;106341;1257;71862;-76
2023/03/06 09:33:13;;;;;;;7.30;4.90;;;;;;;3.61;59.45;98871.33;106543;1259;60365;-74
2023/03/06 09:35:48;;;;;;;13.70;7.50;;;;;;;3.78;58.86;98871.89;106313;1257;61237;-78
2023/03/06 09:38:17;;;;;;;6.80;4.00;;;;;;;3.85;59.28;98871.36;106575;1257;72781;-76
2023/03/06 09:41:13;;;;;;;5.00;3.60;;;;;;;4.14;59.89;98872.65;107613;1255;70230;-74
2023/03/06 09:43:44;;;;;;;6.30;3.40;;;;;;;4.70;59.79;98870.46;106308;1257;74554;-76
2023/03/06 09:46:30;;;;;;;7.40;4.70;;;;;;;5.13;57.13;98865.63;106184;1257;60510;-76
2023/03/06 09:49:09;;;;;;;7.20;4.10;;;;;;;5.29;56.23;98867.62;106304;1257;60415;-75
2023/03/06 09:52:05;;;;;;;6.30;3.80;;;;;;;5.30;56.05;98867.44;106248;1259;74527;-75
2023/03/06 09:54:42;;;;;;;5.40;4.50;;;;;;;5.23;55.60;98871.54;106187;1254;70383;-77
2023/03/06 09:57:20;;;;;;;5.40;4.10;;;;;;;5.01;55.97;98874.59;106223;1257;72553;-77
2023/03/06 09:59:51;;;;;;;6.50;4.30;;;;;;;4.90;55.65;98875.69;106212;1254;60585;-78
2023/03/06 10:02:47;;;;;;;5.50;4.40;;;;;;;4.81;55.76;98874.33;106447;1259;60350;-78
2023/03/06 10:05:19;;;;;;;5.70;3.80;;;;;;;4.62;55.31;98876.68;106444;1258;74536;-78
2023/03/06 10:07:55;;;;;;;8.00;5.10;;;;;;;4.47;54.97;98880.45;106431;1256;70511;-77
2023/03/06 10:10:51;;;;;;;7.90;4.80;;;;;;;4.45;57.04;98881.16;106172;1257;73922;-78
2023/03/06 10:13:35;;;;;;;7.00;3.60;;;;;;;4.79;56.58;98875.89;105953;1256;60527;-78
2023/03/06 10:16:22;;;;;;;5.70;3.90;;;;;;;5.35;54.99;98868.23;106167;1256;60536;-78
2023/03/06 10:18:50;;;;;;;5.10;3.80;;;;;;;6.04;54.79;98866.23;105932;1257;74831;-78
2023/03/06 10:21:42;;;;;;;5.50;3.60;;;;;;;6.71;53.00;98861.45;105820;1260;71525;-78
2023/03/06 10:24:48;;;;;;;5.00;3.50;;;;;;;7.52;50.60;98862.20;106116;1254;71474;-77
2023/03/06 10:27:37;;;;;;;11.60;6.20;;;;;;;8.21;49.27;98863.79;105986;1258;60536;-74
2023/03/06 10:30:09;;;;;;;9.10;4.70;;;;;;;8.68;41.97;98871.32;106150;1254;61852;-77
2023/03/06 10:32:57;;;;;;;8.70;4.30;;;;;;;8.63;42.26;98861.70;108059;1254;73527;-78
2023/03/06 10:35:43;;;;;;;15.70;7.80;;;;;;;8.60;41.82;98857.95;108308;1257;70079;-78
2023/03/06 10:38:19;;;;;;;8.00;4.40;;;;;;;8.87;44.94;98857.14;106213;1257;71151;-78
2023/03/06 10:41:10;;;;;;;7.20;3.50;;;;;;;9.35;45.04;98860.58;106117;1257;60373;-78
2023/03/06 10:43:40;;;;;;;4.70;3.20;;;;;;;9.57;44.44;98858.27;106108;1254;60972;-79
2023/03/06 10:46:11;;;;;;;4.60;3.70;;;;;;;9.94;45.33;98855.83;106275;1260;74547;-77
2023/03/06 10:48:40;;;;;;;5.10;4.10;;;;;;;10.77;44.56;98850.80;106445;1256;70086;-79
2023/03/06 10:51:23;;;;;;;4.50;3.90;;;;;;;11.53;41.41;98852.58;106400;1254;73690;-78
2023/03/06 10:53:58;;;;;;;6.20;3.10;;;;;;;11.79;39.61;98852.23;106171;1257;61464;-76
2023/03/06 10:56:38;;;;;;;5.10;3.40;;;;;;;11.81;38.98;98849.38;106476;1254;60411;-79
2023/03/06 10:59:24;;;;;;;3.40;2.80;;;;;;;11.95;40.35;98847.28;105821;1269;73981;-75
2023/03/06 11:01:57;;;;;;;6.90;3.70;;;;;;;12.52;39.46;98847.29;106102;1254;70054;-77
2023/03/06 11:04:32;;;;;;;4.80;3.20;;;;;;;12.95;40.20;98848.05;105878;1257;73376;-76
2023/03/06 11:07:16;;;;;;;4.60;3.00;;;;;;;13.04;37.75;98849.81;105855;1257;60486;-77
2023/03/06 11:10:17;;;;;;;5.30;3.20;;;;;;;12.56;36.64;98851.17;105758;1254;60530;-77
2023/03/06 11:13:00;;;;;;;4.00;3.40;;;;;;;11.29;36.83;98851.81;105945;1257;72978;-77
2023/03/06 11:15:28;;;;;;;6.70;3.30;;;;;;;10.02;37.82;98849.71;106020;1252;71580;-76
2023/03/06 11:18:03;;;;;;;4.70;3.00;;;;;;;8.86;39.22;98852.27;105860;1254;71664;-76
2023/03/06 11:20:34;;;;;;;4.10;3.10;;;;;;;8.05;40.05;98853.98;105893;1252;60510;-77
2023/03/06 11:23:26;;;;;;;4.00;3.00;;;;;;;7.84;40.81;98852.65;106022;1254;60533;-78
2023/03/06 11:26:13;;;;;;;3.10;2.50;;;;;;;7.93;40.59;98854.27;107096;1252;73329;-75
2023/03/06 11:29:08;;;;;;;8.30;5.00;;;;;;;8.29;39.63;98856.88;108773;1253;69160;-76
2023/03/06 11:31:38;;;;;;;7.00;3.70;;;;;;;8.85;38.62;98855.79;106464;1257;72574;-77
2023/03/06 11:34:10;;;;;;;3.70;2.60;;;;;;;9.14;36.42;98849.96;105888;1254;60674;-79
2023/03/06 11:36:59;;;;;;;8.80;4.50;;;;;;;9.32;37.16;98843.23;105991;1257;60504;-78
2023/03/06 11:39:30;;;;;;;5.10;3.30;;;;;;;9.72;37.73;98844.99;105992;1254;74667;-76
2023/03/06 11:42:09;;;;;;;3.50;2.50;;;;;;;9.96;37.27;98848.71;106128;1254;70657;-78
2023/03/06 11:45:02;;;;;;;4.40;2.90;;;;;;;10.08;36.95;98850.96;105874;1258;73586;-76
2023/03/06 11:47:34;;;;;;;3.10;2.30;;;;;;;9.78;36.52;98848.70;105979;1254;60485;-77